Time;durP1;ratioP1;P1;durP2;ratioP2;P2;SDS_P1;SDS_P2;PMS_P1;PMS_P2;Temp;Humidity;BMP_temperature;BMP_pressure;BME280_temperature;BME280_humidity;BME280_pressure;Samples;Min_cycle;Max_cycle;Signal;HPM_P1;HPM_P2
2023/12/30 00:00:22;;;;;;;4.15;0.98;;;;;;;5.57;100.00;100305.66;5010650;28;20033;-72
2023/12/30 00:02:48;;;;;;;5.88;1.38;;;;;;;5.54;100.00;100309.56;4996782;28;20124;-72
2023/12/30 00:05:16;;;;;;;5.28;1.00;;;;;;;5.51;100.00;100303.97;5016423;28;20038;-72
2023/12/30 00:07:43;;;;;;;6.38;1.65;;;;;;;5.45;100.00;100303.91;4996235;28;20042;-73
2023/12/30 00:10:08;;;;;;;6.45;1.30;;;;;;;5.38;100.00;100292.66;4986965;28;20108;-73
2023/12/30 00:12:36;;;;;;;5.57;1.10;;;;;;;5.33;100.00;100289.13;5002073;28;20050;-73
2023/12/30 00:15:02;;;;;;;5.28;1.33;;;;;;;5.31;100.00;100299.19;4995719;28;20041;-73
2023/12/30 00:17:28;;;;;;;5.13;1.10;;;;;;;5.28;100.00;100304.97;5005337;28;20111;-72
2023/12/30 00:19:54;;;;;;;2.72;0.90;;;;;;;5.25;100.00;100310.78;5002328;28;20120;-73
2023/12/30 00:22:20;;;;;;;5.15;1.45;;;;;;;5.24;100.00;100309.19;5000548;28;20176;-73
2023/12/30 00:24:46;;;;;;;4.72;1.20;;;;;;;5.23;100.00;100307.59;5017626;28;20041;-73
2023/12/30 00:27:12;;;;;;;4.78;1.40;;;;;;;5.22;100.00;100309.44;5014873;28;20046;-72
2023/12/30 00:29:39;;;;;;;7.95;1.40;;;;;;;5.19;100.00;100307.25;5019215;28;20050;-73
2023/12/30 00:32:06;;;;;;;5.03;1.42;;;;;;;5.17;100.00;100309.38;5010156;28;20033;-72
2023/12/30 00:34:33;;;;;;;5.80;1.38;;;;;;;5.17;100.00;100310.16;5019726;28;20127;-72
2023/12/30 00:36:59;;;;;;;4.03;1.05;;;;;;;5.17;100.00;100304.84;5016326;28;20042;-73
2023/12/30 00:39:25;;;;;;;;;;;;;;;5.18;100.00;100305.66;4962833;28;20215;-72
2023/12/30 00:41:52;;;;;;;5.68;1.80;;;;;;;5.19;100.00;100293.97;5015547;28;20457;-72
2023/12/30 00:44:18;;;;;;;5.05;1.40;;;;;;;5.19;100.00;100297.44;4998624;28;20053;-72
2023/12/30 00:46:44;;;;;;;5.03;2.38;;;;;;;5.18;100.00;100295.03;4997783;28;20033;-73
2023/12/30 00:49:11;;;;;;;4.95;1.60;;;;;;;5.16;100.00;100297.94;4995559;28;20052;-72
2023/12/30 00:51:37;;;;;;;4.20;1.58;;;;;;;5.16;100.00;100297.13;4996825;28;20029;-72
2023/12/30 00:54:03;;;;;;;7.05;1.92;;;;;;;5.18;100.00;100308.31;5010077;28;20060;-72
2023/12/30 00:56:29;;;;;;;7.65;1.80;;;;;;;5.22;100.00;100308.63;5014317;28;20080;-72
2023/12/30 00:58:55;;;;;;;4.97;1.98;;;;;;;5.29;100.00;100302.09;4985386;28;20026;-72
2023/12/30 01:01:21;;;;;;;5.88;1.73;;;;;;;5.36;100.00;100297.41;4996204;28;20100;-72
2023/12/30 01:03:47;;;;;;;5.93;1.92;;;;;;;5.39;100.00;100301.41;4996056;28;20033;-73
2023/12/30 01:06:12;;;;;;;5.13;2.03;;;;;;;5.38;100.00;100287.34;5015941;28;20044;-72
2023/12/30 01:08:38;;;;;;;6.25;1.77;;;;;;;5.40;100.00;100277.28;4995785;28;20764;-73
2023/12/30 01:11:04;;;;;;;4.13;1.40;;;;;;;5.44;100.00;100278.41;5006652;28;20049;-72
2023/12/30 01:13:30;;;;;;;2.55;1.40;;;;;;;5.44;100.00;100270.44;4979370;28;20041;-73
2023/12/30 01:15:56;;;;;;;2.70;1.00;;;;;;;5.44;100.00;100286.34;5010904;28;20029;-73
2023/12/30 01:18:23;;;;;;;2.65;1.00;;;;;;;5.48;100.00;100289.31;4998155;28;20025;-72
2023/12/30 01:20:48;;;;;;;2.60;0.80;;;;;;;5.48;100.00;100284.00;4996624;28;20079;-74
2023/12/30 01:23:14;;;;;;;2.75;1.10;;;;;;;5.48;100.00;100297.28;5000645;28;20038;-72
2023/12/30 01:25:42;;;;;;;3.17;1.20;;;;;;;5.51;100.00;100299.47;5013137;28;20669;-72
2023/12/30 01:28:09;;;;;;;2.88;1.20;;;;;;;5.52;100.00;100289.63;5001166;28;20041;-73
2023/12/30 01:30:36;;;;;;;2.55;0.90;;;;;;;5.55;100.00;100297.09;5015242;28;20471;-73
2023/12/30 01:33:04;;;;;;;3.78;1.17;;;;;;;5.56;100.00;100299.53;4986379;28;20107;-73
2023/12/30 01:35:30;;;;;;;3.53;0.93;;;;;;;5.56;100.00;100306.69;5020472;28;20037;-73
2023/12/30 01:37:56;;;;;;;2.88;0.70;;;;;;;5.57;100.00;100321.56;5009092;28;20498;-72
2023/12/30 01:40:23;;;;;;;3.58;0.90;;;;;;;5.59;100.00;100325.59;5013770;28;20157;-73
2023/12/30 01:42:49;;;;;;;2.08;1.08;;;;;;;5.62;100.00;100332.25;4995764;28;20045;-73
2023/12/30 01:45:16;;;;;;;4.05;1.20;;;;;;;5.64;100.00;100340.78;4995370;28;20064;-73
2023/12/30 01:47:41;;;;;;;2.50;1.08;;;;;;;5.68;100.00;100339.22;5012174;28;20044;-73
2023/12/30 01:50:09;;;;;;;2.85;1.17;;;;;;;5.68;100.00;100332.06;5019196;28;20037;-72
2023/12/30 01:52:35;;;;;;;3.17;0.90;;;;;;;5.73;100.00;100342.75;5002128;28;20473;-73
2023/12/30 01:55:07;;;;;;;2.20;0.75;;;;;;;5.73;100.00;100345.41;5010260;28;20029;-73
2023/12/30 01:57:33;;;;;;;2.03;0.70;;;;;;;5.70;100.00;100342.47;4992770;28;20033;-73
2023/12/30 02:00:01;;;;;;;1.65;0.73;;;;;;;5.67;100.00;100346.41;5003701;28;20041;-73
2023/12/30 02:02:37;;;;;;;;;;;;;;;5.63;100.00;100345.31;5017901;28;20083;-72
2023/12/30 02:05:04;;;;;;;1.88;0.70;;;;;;;5.63;100.00;100349.81;4991296;28;20392;-72
2023/12/30 02:07:29;;;;;;;2.85;0.68;;;;;;;5.61;100.00;100351.91;5002445;28;20029;-73
2023/12/30 02:09:55;;;;;;;2.15;0.60;;;;;;;5.59;100.00;100362.78;5009710;28;20037;-72
2023/12/30 02:12:21;;;;;;;3.97;1.17;;;;;;;5.57;100.00;100364.09;5001867;28;20037;-72
2023/12/30 02:14:46;;;;;;;3.13;1.02;;;;;;;5.55;100.00;100360.84;5020760;28;20067;-73
2023/12/30 02:17:13;;;;;;;3.72;1.30;;;;;;;5.53;100.00;100354.97;5011280;28;20110;-72
2023/12/30 02:19:38;;;;;;;4.75;0.82;;;;;;;5.51;100.00;100363.22;4997083;28;20029;-73
2023/12/30 02:22:04;;;;;;;6.00;1.00;;;;;;;5.48;100.00;100358.38;5010998;28;20049;-74
2023/12/30 02:24:29;;;;;;;2.80;0.70;;;;;;;5.48;100.00;100369.00;4980788;28;20141;-71
2023/12/30 02:26:55;;;;;;;2.47;0.80;;;;;;;5.45;100.00;100364.97;5010517;28;20084;-73
2023/12/30 02:29:21;;;;;;;2.58;1.33;;;;;;;5.46;100.00;100381.72;5005221;28;20044;-72
2023/12/30 02:31:46;;;;;;;2.90;0.95;;;;;;;5.41;100.00;100384.28;4990707;28;20095;-73
2023/12/30 02:34:17;;;;;;;3.10;1.15;;;;;;;5.43;100.00;100384.88;4985493;28;20042;-70
2023/12/30 02:36:44;;;;;;;2.35;0.82;;;;;;;5.42;100.00;100397.34;5010826;28;20384;-73
2023/12/30 02:39:11;;;;;;;3.88;1.17;;;;;;;5.39;100.00;100392.50;5001211;28;20489;-72
2023/12/30 02:41:36;;;;;;;4.50;0.93;;;;;;;5.38;100.00;100390.09;4998749;28;20045;-73
2023/12/30 02:44:03;;;;;;;4.22;0.88;;;;;;;5.32;100.00;100391.88;5011632;28;20417;-74
2023/12/30 02:46:31;;;;;;;5.05;1.08;;;;;;;5.27;100.00;100393.66;5010489;28;20044;-74
2023/12/30 02:49:04;;;;;;;2.00;0.65;;;;;;;5.22;100.00;100386.44;4992911;28;20407;-74
2023/12/30 02:51:30;;;;;;;5.90;1.58;;;;;;;5.17;100.00;100386.34;4987486;28;20041;-74
2023/12/30 02:53:56;;;;;;;4.13;0.90;;;;;;;5.17;100.00;100387.16;5014644;28;21743;-74
2023/12/30 02:56:26;;;;;;;6.40;1.45;;;;;;;5.16;100.00;100390.06;4994961;28;20582;-74
2023/12/30 02:58:56;;;;;;;3.53;0.90;;;;;;;5.14;100.00;100395.56;5020378;28;20754;-74
2023/12/30 03:01:27;;;;;;;5.40;1.10;;;;;;;5.11;100.00;100390.78;5012471;28;20044;-73
2023/12/30 03:03:54;;;;;;;4.78;0.77;;;;;;;5.07;100.00;100408.22;5013377;28;20079;-74
2023/12/30 03:06:21;;;;;;;1.80;1.02;;;;;;;5.05;100.00;100402.34;4998464;28;20108;-74
2023/12/30 03:08:48;;;;;;;3.75;0.98;;;;;;;5.06;100.00;100398.66;5018563;28;20042;-74
2023/12/30 03:11:14;;;;;;;3.20;1.33;;;;;;;5.07;100.00;100404.75;4983502;28;20072;-74
2023/12/30 03:13:39;;;;;;;7.28;1.10;;;;;;;5.06;100.00;100403.16;5008384;28;20116;-74
2023/12/30 03:16:06;;;;;;;6.30;1.20;;;;;;;5.11;100.00;100408.53;4984187;28;20518;-73
2023/12/30 03:18:31;;;;;;;3.90;0.95;;;;;;;5.10;100.00;100412.25;5000309;28;20122;-73
2023/12/30 03:20:58;;;;;;;3.92;0.93;;;;;;;5.09;100.00;100413.31;4997554;28;20036;-74
2023/12/30 03:23:23;;;;;;;;;;;;;;;5.07;100.00;100418.81;5007224;28;20041;-74
2023/12/30 03:25:50;;;;;;;4.20;1.00;;;;;;;5.06;100.00;100414.56;4994692;28;19928;-73
2023/12/30 03:28:16;;;;;;;8.13;1.40;;;;;;;5.04;100.00;100416.66;4972049;28;20042;-74
2023/12/30 03:30:44;;;;;;;6.03;1.00;;;;;;;5.06;100.00;100422.53;5011643;28;20080;-74
2023/12/30 03:33:09;;;;;;;5.65;1.30;;;;;;;5.06;100.00;100422.53;4993187;28;20074;-74
2023/12/30 03:35:35;;;;;;;4.47;0.75;;;;;;;5.06;100.00;100435.81;5012260;28;20113;-74
2023/12/30 03:38:01;;;;;;;6.60;1.15;;;;;;;5.06;100.00;100430.50;4985190;28;20037;-73
2023/12/30 03:40:27;;;;;;;6.50;1.20;;;;;;;5.06;100.00;100445.63;5009699;28;20038;-73
2023/12/30 03:42:52;;;;;;;6.75;1.23;;;;;;;5.06;100.00;100441.09;5017591;28;20033;-74
2023/12/30 03:45:18;;;;;;;5.80;1.30;;;;;;;5.08;100.00;100443.53;5022869;28;20426;-74
2023/12/30 03:47:44;;;;;;;6.65;2.33;;;;;;;5.08;100.00;100443.53;4993743;28;20045;-73
2023/12/30 03:50:10;;;;;;;6.60;1.15;;;;;;;5.07;100.00;100458.63;5009382;28;20037;-74
2023/12/30 03:52:35;;;;;;;4.85;1.15;;;;;;;5.09;100.00;100451.25;5014460;28;20044;-73
2023/12/30 03:55:01;;;;;;;5.25;1.10;;;;;;;5.16;100.00;100457.22;5011327;28;20044;-73
2023/12/30 03:57:26;;;;;;;5.45;1.23;;;;;;;5.15;100.00;100455.63;5013328;28;20084;-74
2023/12/30 03:59:52;;;;;;;7.60;1.58;;;;;;;5.15;100.00;100452.97;4998397;28;20048;-73
2023/12/30 04:02:20;;;;;;;8.35;1.52;;;;;;;5.21;100.00;100464.44;5006180;28;20069;-74
2023/12/30 04:04:48;;;;;;;7.32;1.30;;;;;;;5.25;100.00;100460.28;5014544;28;20037;-73
2023/12/30 04:07:14;;;;;;;4.93;1.42;;;;;;;5.28;100.00;100459.78;4967595;28;20501;-74
2023/12/30 04:09:39;;;;;;;6.65;1.00;;;;;;;5.32;100.00;100457.47;4998007;28;20084;-74
2023/12/30 04:12:05;;;;;;;6.28;0.88;;;;;;;5.35;100.00;100462.28;5028263;28;20048;-74
2023/12/30 04:14:31;;;;;;;5.75;1.20;;;;;;;5.38;100.00;100462.59;4981891;28;20029;-75
2023/12/30 04:16:56;;;;;;;6.32;0.95;;;;;;;5.41;100.00;100471.94;5012332;28;20158;-76
2023/12/30 04:19:24;;;;;;;6.82;1.50;;;;;;;5.41;100.00;100485.22;4997125;28;20045;-75
2023/12/30 04:21:50;;;;;;;7.30;1.25;;;;;;;5.38;100.00;100496.34;5016726;28;20727;-75
2023/12/30 04:24:18;;;;;;;4.63;1.65;;;;;;;5.36;100.00;100483.31;5007981;28;20026;-74
2023/12/30 04:26:44;;;;;;;;;;;;;;;5.33;100.00;100485.63;5013824;28;20036;-74
2023/12/30 04:29:11;;;;;;;10.32;1.70;;;;;;;5.31;100.00;100479.75;4981335;28;19921;-74
2023/12/30 04:31:37;;;;;;;6.57;1.10;;;;;;;5.26;100.00;100479.66;4995167;28;20130;-74
2023/12/30 04:34:03;;;;;;;8.25;1.40;;;;;;;5.26;100.00;100477.00;5011308;28;20506;-74
2023/12/30 04:36:29;;;;;;;8.05;1.70;;;;;;;5.26;100.00;100469.84;4982943;28;20034;-74
2023/12/30 04:38:55;;;;;;;8.20;1.42;;;;;;;5.30;100.00;100470.19;5018536;28;20029;-74
2023/12/30 04:41:21;;;;;;;7.80;1.60;;;;;;;5.25;100.00;100468.25;4976262;28;20045;-74
2023/12/30 04:43:47;;;;;;;7.22;1.60;;;;;;;5.26;100.00;100458.41;4995191;28;20091;-74
2023/12/30 04:46:13;;;;;;;9.07;2.28;;;;;;;5.29;100.00;100465.91;5012541;28;20041;-75
2023/12/30 04:48:38;;;;;;;8.63;1.40;;;;;;;5.27;100.00;100476.75;5004500;28;20063;-75
2023/12/30 04:51:04;;;;;;;6.43;1.58;;;;;;;5.24;100.00;100468.47;5022180;28;20041;-75
2023/12/30 04:53:30;;;;;;;8.55;1.50;;;;;;;5.27;100.00;100460.03;5030055;28;20032;-74
2023/12/30 04:55:56;;;;;;;4.95;1.15;;;;;;;5.30;100.00;100470.19;5011849;28;20033;-74
2023/12/30 04:58:23;;;;;;;7.20;1.48;;;;;;;5.30;100.00;100462.22;5014179;28;20148;-74
2023/12/30 05:00:48;;;;;;;8.77;1.30;;;;;;;5.34;100.00;100468.63;4988136;28;20612;-75
2023/12/30 05:03:15;;;;;;;6.70;1.35;;;;;;;5.32;100.00;100466.22;4997053;28;20284;-74
2023/12/30 05:05:41;;;;;;;;;;;;;;;5.33;100.00;100473.13;4999040;28;20060;-75
2023/12/30 05:08:07;;;;;;;7.97;1.23;;;;;;;5.35;100.00;100475.56;4999693;28;19921;-75
2023/12/30 05:10:33;;;;;;;8.00;1.45;;;;;;;5.38;100.00;100464.47;5007355;28;20041;-74
2023/12/30 05:13:03;;;;;;;12.57;1.77;;;;;;;5.41;100.00;100479.91;5002276;28;20119;-75
2023/12/30 05:15:29;;;;;;;5.15;1.40;;;;;;;5.41;100.00;100482.56;4993744;28;20155;-75
2023/12/30 05:17:54;;;;;;;4.38;0.88;;;;;;;5.41;100.00;100491.31;4993030;28;20754;-77
2023/12/30 05:20:20;;;;;;;7.07;1.63;;;;;;;5.45;100.00;100497.78;4991001;28;20087;-74
2023/12/30 05:22:46;;;;;;;8.82;1.48;;;;;;;5.48;100.00;100497.28;4978797;28;20038;-75
2023/12/30 05:25:12;;;;;;;7.38;1.30;;;;;;;5.47;100.00;100502.84;5013629;28;20048;-75
2023/12/30 05:27:38;;;;;;;4.88;1.10;;;;;;;5.48;100.00;100501.78;5009274;28;20394;-75
2023/12/30 05:30:08;;;;;;;10.13;1.85;;;;;;;5.48;100.00;100501.78;5006551;28;20044;-74
2023/12/30 05:32:35;;;;;;;5.05;1.20;;;;;;;5.50;100.00;100512.19;5009098;28;20029;-72
2023/12/30 05:35:00;;;;;;;7.13;1.00;;;;;;;5.51;100.00;100511.94;5015718;28;20038;-72
2023/12/30 05:37:26;;;;;;;4.38;1.33;;;;;;;5.49;100.00;100500.78;5012849;28;20049;-73
2023/12/30 05:39:51;;;;;;;6.85;1.20;;;;;;;5.51;100.00;100500.53;4993300;28;20044;-72
2023/12/30 05:42:17;;;;;;;9.15;2.13;;;;;;;5.52;100.00;100512.75;5002707;28;20103;-73
2023/12/30 05:44:43;;;;;;;6.78;1.58;;;;;;;5.51;100.00;100506.63;5000430;28;20399;-73
2023/12/30 05:47:09;;;;;;;5.15;1.08;;;;;;;5.50;100.00;100513.00;5013654;28;20037;-73
2023/12/30 05:49:40;;;;;;;5.75;1.38;;;;;;;5.48;100.00;100510.56;5012195;28;20034;-72
2023/12/30 05:52:07;;;;;;;3.33;1.08;;;;;;;5.51;100.00;100522.56;5000765;28;20041;-72
2023/12/30 05:54:34;;;;;;;6.35;2.45;;;;;;;5.51;100.00;100516.47;5001483;28;20124;-73
2023/12/30 05:57:00;;;;;;;;;;;;;;;5.54;100.00;100521.28;4979563;28;20037;-72
2023/12/30 05:59:26;;;;;;;6.47;1.58;;;;;;;5.55;100.00;100522.88;5018892;28;20378;-72
2023/12/30 06:01:52;;;;;;;6.50;1.20;;;;;;;5.56;100.00;100529.81;5008428;28;20037;-73
2023/12/30 06:04:18;;;;;;;7.22;1.75;;;;;;;5.59;100.00;100530.13;4998032;28;20037;-72
2023/12/30 06:06:44;;;;;;;4.95;1.10;;;;;;;5.60;100.00;100531.75;4998190;28;20049;-72
2023/12/30 06:09:11;;;;;;;6.35;1.30;;;;;;;5.62;100.00;100539.47;5016706;28;20037;-74
2023/12/30 06:11:36;;;;;;;;;;;;;;;5.68;100.00;100534.00;5000992;28;21803;-73
2023/12/30 06:14:03;;;;;;;4.90;1.30;;;;;;;5.69;100.00;100548.91;5019546;28;20398;-73
2023/12/30 06:16:28;;;;;;;7.18;1.75;;;;;;;5.66;100.00;100546.72;5015884;28;20717;-73
2023/12/30 06:18:54;;;;;;;6.68;1.10;;;;;;;5.62;100.00;100550.91;4998684;28;20121;-73
2023/12/30 06:21:20;;;;;;;7.80;1.65;;;;;;;5.64;100.00;100559.44;5022400;28;20055;-72
2023/12/30 06:23:47;;;;;;;7.20;1.50;;;;;;;5.63;100.00;100555.19;4983912;28;20410;-72
2023/12/30 06:26:12;;;;;;;6.72;1.20;;;;;;;5.62;100.00;100550.91;5015612;28;20513;-73
2023/12/30 06:28:38;;;;;;;5.68;1.30;;;;;;;5.64;100.00;100566.63;5038266;28;20030;-72
2023/12/30 06:31:04;;;;;;;6.68;1.55;;;;;;;5.64;100.00;100569.28;4999036;28;20038;-73
2023/12/30 06:33:30;;;;;;;8.63;1.60;;;;;;;5.65;100.00;100569.03;4996608;28;20034;-73
2023/12/30 06:35:55;;;;;;;6.03;1.20;;;;;;;5.64;100.00;100579.91;4988128;28;20034;-72
2023/12/30 06:38:22;;;;;;;6.30;1.25;;;;;;;5.67;100.00;100571.44;5021007;28;20033;-72
2023/12/30 06:40:48;;;;;;;5.65;1.00;;;;;;;5.72;100.00;100574.97;5021260;28;20029;-73
2023/12/30 06:43:14;;;;;;;6.53;1.10;;;;;;;5.71;100.00;100581.34;5018897;28;20025;-73
2023/12/30 06:45:40;;;;;;;10.60;1.50;;;;;;;5.75;100.00;100582.47;5014373;28;20049;-73
2023/12/30 06:48:06;;;;;;;4.05;1.25;;;;;;;5.74;100.00;100583.50;5002798;28;20516;-73
2023/12/30 06:50:33;;;;;;;5.88;1.67;;;;;;;5.75;100.00;100593.09;5018386;28;20518;-73
2023/12/30 06:52:59;;;;;;;6.25;1.05;;;;;;;5.73;100.00;100599.69;5002427;28;20065;-73
2023/12/30 06:55:25;;;;;;;6.93;1.40;;;;;;;5.65;100.00;100603.56;5021517;28;20079;-73
2023/12/30 06:57:50;;;;;;;;;;;;;;;5.60;100.00;100611.44;5022026;28;20387;-72
2023/12/30 07:00:17;;;;;;;7.13;1.92;;;;;;;5.58;100.00;100618.84;5014739;28;19945;-73
2023/12/30 07:02:44;;;;;;;11.35;1.63;;;;;;;5.56;100.00;100612.19;5014761;28;20041;-73
2023/12/30 07:05:10;;;;;;;7.68;1.20;;;;;;;5.55;100.00;100618.50;4997922;28;20045;-73
2023/12/30 07:07:36;;;;;;;9.07;1.52;;;;;;;5.51;100.00;100626.16;5018463;28;20037;-73
2023/12/30 07:10:04;;;;;;;6.13;0.88;;;;;;;5.47;100.00;100644.41;5023040;28;20111;-72
2023/12/30 07:12:30;;;;;;;11.75;1.58;;;;;;;5.46;100.00;100647.31;5009949;28;20041;-72
2023/12/30 07:14:57;;;;;;;10.60;1.42;;;;;;;5.44;100.00;100638.78;5000608;28;20042;-72
2023/12/30 07:17:23;;;;;;;9.93;1.65;;;;;;;5.40;100.00;100649.06;5016195;28;20137;-72
2023/12/30 07:19:49;;;;;;;8.73;1.70;;;;;;;5.36;100.00;100649.81;5020154;28;20123;-73
2023/12/30 07:22:15;;;;;;;9.75;1.52;;;;;;;5.36;100.00;100671.03;4997245;28;20196;-72
2023/12/30 07:24:40;;;;;;;9.65;2.08;;;;;;;5.34;100.00;100654.53;5017597;28;20714;-73
2023/12/30 07:27:06;;;;;;;6.70;1.30;;;;;;;5.31;100.00;100660.31;5004586;28;20033;-73
2023/12/30 07:29:33;;;;;;;10.88;1.70;;;;;;;5.31;100.00;100660.31;5003959;28;20574;-73
2023/12/30 07:31:59;;;;;;;6.57;1.70;;;;;;;5.30;100.00;100664.03;5024142;28;20044;-72
2023/12/30 07:34:25;;;;;;;8.63;1.27;;;;;;;5.31;100.00;100665.63;5012292;28;20084;-72
2023/12/30 07:36:51;;;;;;;6.85;1.02;;;;;;;5.34;100.00;100675.75;5016547;28;20137;-72
2023/12/30 07:39:17;;;;;;;9.07;1.40;;;;;;;5.34;100.00;100675.75;5015580;28;20037;-73
2023/12/30 07:41:43;;;;;;;8.63;1.85;;;;;;;5.36;100.00;100685.13;5002780;28;20045;-73
2023/12/30 07:44:08;;;;;;;7.13;1.20;;;;;;;5.38;100.00;100692.84;5010163;28;20041;-73
2023/12/30 07:46:34;;;;;;;6.15;1.48;;;;;;;5.38;100.00;100683.03;5024774;28;20778;-72
2023/12/30 07:49:00;;;;;;;10.02;1.20;;;;;;;5.40;100.00;100682.78;5010846;28;20037;-73
2023/12/30 07:51:25;;;;;;;6.18;1.17;;;;;;;5.40;100.00;100699.53;4998523;28;20029;-73
2023/12/30 07:53:51;;;;;;;9.02;1.77;;;;;;;5.40;100.00;100693.41;4999882;28;20044;-72
2023/12/30 07:56:17;;;;;;;8.98;1.17;;;;;;;5.41;100.00;100692.38;5004527;28;20509;-74
2023/12/30 07:58:42;;;;;;;9.38;1.77;;;;;;;5.37;100.00;100692.03;5012992;28;20048;-72
2023/12/30 08:01:08;;;;;;;4.50;0.98;;;;;;;5.35;100.00;100693.31;5004251;28;20029;-72
2023/12/30 08:03:34;;;;;;;7.38;1.75;;;;;;;5.37;100.00;100693.91;5014396;28;20382;-73
2023/12/30 08:06:00;;;;;;;7.15;1.08;;;;;;;5.38;100.00;100698.16;4991084;28;20482;-72
2023/12/30 08:08:26;;;;;;;6.68;1.42;;;;;;;5.41;100.00;100708.31;5002380;28;20513;-73
2023/12/30 08:10:51;;;;;;;4.05;1.00;;;;;;;5.43;100.00;100691.09;5016164;28;20041;-73
2023/12/30 08:13:17;;;;;;;12.30;1.40;;;;;;;5.47;100.00;100702.03;5000142;28;20112;-73
2023/12/30 08:15:42;;;;;;;6.68;1.55;;;;;;;5.46;100.00;100700.44;4996778;28;20034;-72
2023/12/30 08:18:08;;;;;;;6.30;1.33;;;;;;;5.50;100.00;100698.13;5012772;28;20064;-73
2023/12/30 08:20:34;;;;;;;11.65;1.67;;;;;;;5.46;100.00;100703.09;5000748;28;20601;-72
2023/12/30 08:23:00;;;;;;;5.22;1.25;;;;;;;5.40;100.00;100696.88;5015564;28;20083;-73
2023/12/30 08:25:25;;;;;;;12.27;1.33;;;;;;;5.35;100.00;100696.78;4995527;28;20046;-72
2023/12/30 08:27:51;;;;;;;8.00;1.45;;;;;;;5.36;100.00;100708.22;5004939;28;20044;-73
2023/12/30 08:30:17;;;;;;;7.97;1.17;;;;;;;5.33;100.00;100703.38;5016860;28;20037;-73
2023/12/30 08:32:43;;;;;;;9.40;1.50;;;;;;;5.30;100.00;100685.25;5011544;28;20135;-73
2023/12/30 08:35:10;;;;;;;11.10;1.23;;;;;;;5.34;100.00;100689.03;5017300;28;20072;-73
2023/12/30 08:37:36;;;;;;;10.48;1.70;;;;;;;5.34;100.00;100697.00;4990673;28;20123;-73
2023/12/30 08:40:10;;;;;;;6.20;1.20;;;;;;;5.37;100.00;100702.66;5020187;28;20033;-73
2023/12/30 08:42:37;;;;;;;9.00;1.90;;;;;;;5.38;100.00;100706.13;5011932;28;20044;-72
2023/12/30 08:45:06;;;;;;;13.45;1.45;;;;;;;5.41;100.00;100724.22;4998141;28;20045;-74
2023/12/30 08:47:34;;;;;;;5.32;1.67;;;;;;;5.38;100.00;100714.91;4982094;28;20045;-73
2023/12/30 08:50:01;;;;;;;6.97;1.17;;;;;;;5.40;100.00;100738.56;5016526;28;20025;-73
2023/12/30 08:52:27;;;;;;;6.15;1.27;;;;;;;5.41;100.00;100729.53;4998763;28;20140;-73
2023/12/30 08:54:52;;;;;;;4.57;1.33;;;;;;;5.44;100.00;100739.72;5011791;28;20048;-74
2023/12/30 08:57:18;;;;;;;8.25;1.27;;;;;;;5.39;100.00;100739.59;5015892;28;20066;-72
2023/12/30 08:59:43;;;;;;;11.13;1.85;;;;;;;5.46;100.00;100749.06;5000506;28;20128;-72
2023/12/30 09:02:09;;;;;;;9.27;1.70;;;;;;;5.49;100.00;100742.47;5016703;28;20490;-73
2023/12/30 09:04:35;;;;;;;4.75;1.70;;;;;;;5.53;100.00;100759.53;5006333;28;20042;-73
2023/12/30 09:07:00;;;;;;;5.13;1.35;;;;;;;5.56;100.00;100769.72;5007969;28;20968;-73
2023/12/30 09:09:26;;;;;;;5.80;1.50;;;;;;;5.58;100.00;100769.47;5000112;28;20718;-73
2023/12/30 09:11:53;;;;;;;11.27;1.85;;;;;;;5.62;100.00;100760.81;4998379;28;20099;-72
2023/12/30 09:14:19;;;;;;;7.90;1.85;;;;;;;5.65;100.00;100773.59;5004394;28;20034;-72
2023/12/30 09:16:45;;;;;;;7.10;1.58;;;;;;;5.72;100.00;100779.59;5018850;28;20088;-72
2023/12/30 09:19:10;;;;;;;8.10;1.50;;;;;;;5.75;100.00;100787.06;4980503;28;20056;-72
2023/12/30 09:21:36;;;;;;;7.22;1.52;;;;;;;5.75;100.00;100795.03;5002267;28;20041;-73
2023/12/30 09:24:02;;;;;;;10.32;1.45;;;;;;;5.77;100.00;100788.72;4995486;28;20052;-72
2023/12/30 09:26:28;;;;;;;5.93;1.20;;;;;;;5.79;100.00;100794.59;5023108;28;20022;-73
2023/12/30 09:28:54;;;;;;;11.25;1.52;;;;;;;5.80;100.00;100798.84;4995493;28;20121;-72
2023/12/30 09:31:24;;;;;;;9.80;1.73;;;;;;;5.80;100.00;100796.19;4998650;28;20042;-72
2023/12/30 09:33:50;;;;;;;9.20;1.63;;;;;;;5.82;100.00;100796.75;4987535;28;20036;-72
2023/12/30 09:36:22;;;;;;;6.30;1.35;;;;;;;5.87;100.00;100807.50;5009061;28;20034;-73
2023/12/30 09:38:47;;;;;;;7.25;1.83;;;;;;;5.86;100.00;100827.16;5018914;28;20038;-73
2023/12/30 09:41:13;;;;;;;7.55;1.33;;;;;;;5.89;100.00;100830.16;5020635;28;20487;-73
2023/12/30 09:43:42;;;;;;;9.70;2.03;;;;;;;5.94;100.00;100830.25;4994152;28;20084;-73
2023/12/30 09:46:09;;;;;;;10.30;1.85;;;;;;;5.97;100.00;100834.31;5015397;28;20034;-72
2023/12/30 09:48:36;;;;;;;4.75;1.23;;;;;;;5.97;100.00;100826.34;5020573;28;20049;-72
2023/12/30 09:51:02;;;;;;;9.63;1.70;;;;;;;5.98;100.00;100835.94;5016838;28;20054;-72
2023/12/30 09:53:28;;;;;;;9.88;1.52;;;;;;;5.98;100.00;100836.75;5016155;28;20034;-71
2023/12/30 09:55:55;;;;;;;10.00;1.30;;;;;;;6.02;100.00;100845.03;5016351;28;20075;-72
2023/12/30 09:58:22;;;;;;;5.53;1.35;;;;;;;6.05;100.00;100852.56;5003409;28;20040;-72
2023/12/30 10:00:47;;;;;;;5.28;1.63;;;;;;;6.09;100.00;100852.88;5017403;28;20819;-72
2023/12/30 10:03:14;;;;;;;8.52;2.35;;;;;;;6.06;100.00;100854.16;5018407;28;20044;-72
2023/12/30 10:05:41;;;;;;;7.38;1.85;;;;;;;6.06;100.00;100854.16;5001866;28;20117;-72
2023/12/30 10:08:07;;;;;;;8.18;1.60;;;;;;;6.08;100.00;100846.75;5019275;28;20041;-72
2023/12/30 10:10:48;;;;;;;9.00;1.40;;;;;;;6.06;100.00;100851.50;5006219;28;20041;-70
2023/12/30 10:13:26;;;;;;;6.97;1.10;;;;;;;6.06;100.00;100848.84;5016614;28;20100;-72
2023/12/30 10:15:53;;;;;;;7.88;1.95;;;;;;;6.07;100.00;100854.97;4989162;28;20062;-72
2023/12/30 10:18:22;;;;;;;9.77;1.33;;;;;;;6.07;100.00;100855.78;5015458;28;20042;-70
2023/12/30 10:20:47;;;;;;;7.30;1.70;;;;;;;6.06;100.00;100856.81;4999126;28;20025;-71
2023/12/30 10:23:14;;;;;;;12.60;2.03;;;;;;;6.04;100.00;100856.25;4984656;28;20045;-72
2023/12/30 10:25:41;;;;;;;5.65;1.73;;;;;;;6.05;100.00;100857.88;5003770;28;20037;-71
2023/12/30 10:28:07;;;;;;;7.03;1.30;;;;;;;6.06;100.00;100854.16;5014941;28;20039;-72
2023/12/30 10:30:33;;;;;;;7.97;1.65;;;;;;;6.04;100.00;100861.56;5018013;28;20185;-72
2023/12/30 10:33:05;;;;;;;;;;;;;;;6.06;100.00;100864.78;4999684;28;20542;-72
2023/12/30 10:35:31;;;;;;;10.70;1.52;;;;;;;6.00;100.00;100877.19;5018067;28;19913;-72
2023/12/30 10:37:57;;;;;;;8.60;1.70;;;;;;;5.97;100.00;100866.22;5012932;28;20029;-72
2023/12/30 10:40:23;;;;;;;6.47;0.95;;;;;;;5.92;100.00;100863.47;5016418;28;20743;-72
2023/12/30 10:42:49;;;;;;;7.05;1.67;;;;;;;5.90;100.00;100865.53;5017889;28;20033;-72
2023/12/30 10:45:14;;;;;;;5.43;1.30;;;;;;;5.86;100.00;100865.16;5018796;28;20037;-72
2023/12/30 10:47:40;;;;;;;8.38;1.27;;;;;;;5.84;100.00;100871.78;5012024;28;20134;-72
2023/12/30 10:50:09;;;;;;;9.98;2.25;;;;;;;5.81;100.00;100875.69;5023523;28;20100;-72
2023/12/30 10:52:44;;;;;;;9.43;1.13;;;;;;;5.79;100.00;100874.31;5017531;28;20026;-73
2023/12/30 10:55:14;;;;;;;12.27;1.65;;;;;;;5.73;100.00;100881.38;5011810;28;20117;-72
2023/12/30 10:57:45;;;;;;;8.20;1.48;;;;;;;5.69;100.00;100870.41;5016281;28;20034;-71
2023/12/30 11:00:14;;;;;;;10.45;1.42;;;;;;;5.70;100.00;100871.22;5011758;28;20034;-72
2023/12/30 11:02:41;;;;;;;7.35;1.58;;;;;;;5.69;100.00;100875.72;5015105;28;20048;-72
2023/12/30 11:05:11;;;;;;;7.35;1.25;;;;;;;5.70;100.00;100882.66;4957744;28;20478;-72
2023/12/30 11:07:37;;;;;;;7.38;1.40;;;;;;;5.74;100.00;100883.78;5022568;28;20045;-72
2023/12/30 11:10:20;;;;;;;6.60;1.30;;;;;;;5.81;100.00;100877.53;4999286;28;20049;-72
2023/12/30 11:12:46;;;;;;;6.53;1.90;;;;;;;5.87;100.00;100881.91;5016588;28;20116;-72
2023/12/30 11:15:28;;;;;;;8.90;1.55;;;;;;;5.91;100.00;100883.13;4997250;28;20042;-71
2023/12/30 11:17:58;;;;;;;5.93;1.30;;;;;;;5.92;100.00;100877.56;5005541;28;20140;-72
2023/12/30 11:20:30;;;;;;;9.70;1.23;;;;;;;5.89;100.00;100880.66;5015924;28;20037;-72
2023/12/30 11:23:01;;;;;;;5.70;1.20;;;;;;;5.93;100.00;100900.44;5012273;28;20785;-72